Time;durP1;ratioP1;P1;durP2;ratioP2;P2;SDS_P1;SDS_P2;PMS_P1;PMS_P2;Temp;Humidity;BMP_temperature;BMP_pressure;BME280_temperature;BME280_humidity;BME280_pressure;Samples;Min_cycle;Max_cycle;Signal;HPM_P1;HPM_P2
2021/07/27 00:00:36;;;;;;;6.45;3.58;;;20.30;99.90;;;;;;5033349;28;20030;-49
2021/07/27 00:03:03;;;;;;;5.70;3.78;;;20.30;99.90;;;;;;5034040;28;20094;-52
2021/07/27 00:05:30;;;;;;;4.85;3.17;;;20.30;99.90;;;;;;5033963;28;20344;-48
2021/07/27 00:07:56;;;;;;;4.57;3.58;;;20.30;99.90;;;;;;5033901;28;20018;-50
2021/07/27 00:10:23;;;;;;;5.05;3.92;;;20.20;99.90;;;;;;5015398;28;20395;-48
2021/07/27 00:12:48;;;;;;;5.18;3.00;;;20.20;99.90;;;;;;5033709;28;20081;-49
2021/07/27 00:15:14;;;;;;;3.40;3.08;;;20.10;99.90;;;;;;5033005;28;20021;-45
2021/07/27 00:17:39;;;;;;;3.90;3.25;;;20.00;99.90;;;;;;5033710;28;20467;-49
2021/07/27 00:20:06;;;;;;;3.83;3.53;;;20.10;99.90;;;;;;5015204;28;20021;-46
2021/07/27 00:22:31;;;;;;;6.68;3.58;;;20.00;99.90;;;;;;5033479;28;20026;-48
2021/07/27 00:25:00;;;;;;;3.65;3.35;;;20.00;99.90;;;;;;5033556;28;20040;-48
2021/07/27 00:27:26;;;;;;;3.17;2.90;;;19.90;99.90;;;;;;5033296;28;20032;-49
2021/07/27 00:29:52;;;;;;;4.53;4.07;;;19.90;99.90;;;;;;5032842;28;20029;-45
2021/07/27 00:32:17;;;;;;;5.78;3.75;;;19.90;99.90;;;;;;5033514;28;20040;-50
2021/07/27 00:34:43;;;;;;;5.07;3.40;;;19.90;99.90;;;;;;5033471;28;20028;-47
2021/07/27 00:37:16;;;;;;;6.47;3.40;;;19.90;99.90;;;;;;5033496;28;20026;-55
2021/07/27 00:39:43;;;;;;;5.90;3.75;;;19.80;99.90;;;;;;5032827;28;20021;-50
2021/07/27 00:42:09;;;;;;;5.95;3.97;;;19.70;99.90;;;;;;5033511;28;20021;-46
2021/07/27 00:44:34;;;;;;;5.88;3.50;;;19.70;99.90;;;;;;5033569;28;20027;-47
2021/07/27 00:47:00;;;;;;;5.75;3.10;;;19.70;99.90;;;;;;5033319;28;20104;-48
2021/07/27 00:49:25;;;;;;;5.82;3.95;;;19.70;99.90;;;;;;5032477;28;20506;-50
2021/07/27 00:51:51;;;;;;;3.97;3.67;;;19.70;99.90;;;;;;5033222;28;20024;-46
2021/07/27 00:54:17;;;;;;;4.03;3.72;;;19.70;99.90;;;;;;5033121;28;20053;-50
2021/07/27 00:56:42;;;;;;;4.10;3.70;;;19.70;99.90;;;;;;5015582;28;20064;-48
2021/07/27 00:59:08;;;;;;;4.38;3.45;;;19.70;99.90;;;;;;5032290;28;20033;-47
2021/07/27 01:01:35;;;;;;;3.58;3.15;;;19.70;99.90;;;;;;5033055;28;20065;-51
2021/07/27 01:04:00;;;;;;;3.70;3.20;;;19.70;99.90;;;;;;5033271;28;20029;-47
2021/07/27 01:06:26;;;;;;;3.83;3.53;;;19.70;99.90;;;;;;5032901;28;20048;-51
2021/07/27 01:08:52;;;;;;;6.25;3.30;;;19.80;99.90;;;;;;5014123;28;20037;-44
2021/07/27 01:11:24;;;;;;;10.50;3.67;;;19.70;99.90;;;;;;5032517;28;20018;-50
2021/07/27 01:13:51;;;;;;;4.82;3.47;;;19.70;99.90;;;;;;5032667;28;20072;-49
2021/07/27 01:16:18;;;;;;;3.92;3.38;;;19.70;99.90;;;;;;5031872;28;20171;-46
2021/07/27 01:18:57;;;;;;;4.00;3.60;;;19.60;99.90;;;;;;5031813;28;20152;-48
2021/07/27 01:38:10;;;;;;;4.75;3.80;;;19.10;99.90;;;;;;5032437;28;20067;-46
2021/07/27 01:40:44;;;;;;;5.40;3.75;;;19.10;99.90;;;;;;5013857;28;20401;-46
2021/07/27 01:43:10;;;;;;;4.13;3.65;;;19.10;99.90;;;;;;5032350;28;20025;-44
2021/07/27 01:45:35;;;;;;;7.18;4.80;;;19.00;99.90;;;;;;5032621;28;20021;-44
2021/07/27 01:48:01;;;;;;;4.03;3.67;;;19.00;99.90;;;;;;5032082;28;20038;-46
2021/07/27 01:50:27;;;;;;;4.13;3.72;;;18.90;99.90;;;;;;5031448;28;20457;-44
2021/07/27 01:52:58;;;;;;;6.30;3.70;;;19.00;99.90;;;;;;5032076;28;20550;-44
2021/07/27 01:55:23;;;;;;;4.57;4.18;;;18.90;99.90;;;;;;5032481;28;20026;-47
2021/07/27 01:57:49;;;;;;;6.53;4.28;;;18.90;99.90;;;;;;5032052;28;20024;-50
2021/07/27 02:00:15;;;;;;;4.03;3.65;;;18.80;99.90;;;;;;5031396;28;20037;-45
2021/07/27 02:02:41;;;;;;;6.18;4.05;;;18.80;99.90;;;;;;5031962;28;20041;-44
2021/07/27 02:05:07;;;;;;;6.03;4.38;;;18.70;99.90;;;;;;5031244;28;20104;-44
2021/07/27 02:07:37;;;;;;;5.10;3.97;;;18.70;99.90;;;;;;5031703;28;20032;-49
2021/07/27 02:10:06;;;;;;;8.73;4.10;;;18.70;99.90;;;;;;5031043;28;20066;-46
2021/07/27 02:12:39;;;;;;;4.57;4.18;;;18.70;99.90;;;;;;5014158;28;20022;-50
2021/07/27 02:15:09;;;;;;;6.20;4.45;;;18.70;99.90;;;;;;5032199;28;20017;-44
2021/07/27 02:17:36;;;;;;;5.93;4.32;;;18.60;99.90;;;;;;5031955;28;20521;-45
2021/07/27 02:20:06;;;;;;;5.25;3.90;;;18.60;99.90;;;;;;5031518;28;20029;-48
2021/07/27 02:22:33;;;;;;;4.80;4.40;;;18.50;99.90;;;;;;5031818;28;20025;-46
2021/07/27 02:24:58;;;;;;;5.35;4.18;;;18.50;99.90;;;;;;5031928;28;20083;-48
2021/07/27 02:27:28;;;;;;;5.40;4.45;;;18.50;99.90;;;;;;5031789;28;20398;-49
2021/07/27 02:29:53;;;;;;;9.20;4.45;;;18.50;99.90;;;;;;5030969;28;20517;-48
2021/07/27 02:32:19;;;;;;;7.70;4.88;;;18.50;99.90;;;;;;5031598;28;20052;-48
2021/07/27 02:34:45;;;;;;;5.57;4.75;;;18.50;99.90;;;;;;5031855;28;20021;-45
2021/07/27 02:37:11;;;;;;;5.60;4.20;;;18.50;99.90;;;;;;5031743;28;20072;-47
2021/07/27 02:39:36;;;;;;;4.72;3.97;;;18.50;99.90;;;;;;5012987;28;20026;-48
2021/07/27 02:42:02;;;;;;;5.45;3.90;;;18.40;99.90;;;;;;5031105;28;20072;-46
2021/07/27 02:44:27;;;;;;;4.38;3.97;;;18.40;99.90;;;;;;5031140;28;20029;-49
2021/07/27 02:46:53;;;;;;;4.95;4.35;;;18.50;99.90;;;;;;5013444;28;20483;-45
2021/07/27 02:49:19;;;;;;;4.22;3.83;;;18.50;99.90;;;;;;5030330;28;20104;-45
2021/07/27 02:51:49;;;;;;;6.15;4.18;;;18.60;99.90;;;;;;5031155;28;20404;-44
2021/07/27 02:54:14;;;;;;;5.70;3.88;;;18.60;99.90;;;;;;5031327;28;20037;-49
2021/07/27 02:56:39;;;;;;;7.30;4.85;;;18.50;99.90;;;;;;5031176;28;20033;-44
2021/07/27 02:59:05;;;;;;;5.45;4.22;;;18.40;99.90;;;;;;5030482;28;20025;-45
2021/07/27 03:01:30;;;;;;;6.78;4.07;;;18.50;99.90;;;;;;5031014;28;20056;-48
2021/07/27 03:03:56;;;;;;;7.43;4.60;;;18.40;99.90;;;;;;5030801;28;20104;-46
2021/07/27 03:06:22;;;;;;;6.65;4.47;;;18.40;99.90;;;;;;5030611;28;20040;-45
2021/07/27 03:11:23;;;;;;;8.57;4.68;;;18.40;99.90;;;;;;5030922;28;20088;-45
2021/07/27 03:13:48;;;;;;;6.45;4.35;;;18.40;99.90;;;;;;5030718;28;20105;-50
2021/07/27 03:16:19;;;;;;;7.07;4.38;;;18.30;99.90;;;;;;5028678;28;20093;-45
2021/07/27 03:18:46;;;;;;;6.05;4.95;;;18.40;99.90;;;;;;5029680;28;20025;-47
2021/07/27 03:21:19;;;;;;;6.30;4.20;;;18.40;99.90;;;;;;5030892;28;20372;-45
2021/07/27 03:23:45;;;;;;;4.95;4.32;;;18.40;99.90;;;;;;5030917;28;20040;-49
2021/07/27 03:26:11;;;;;;;6.32;4.80;;;18.40;99.90;;;;;;5012808;28;20025;-45
2021/07/27 03:28:37;;;;;;;10.05;5.47;;;18.30;99.90;;;;;;5029647;28;20679;-43
2021/07/27 03:31:02;;;;;;;11.98;5.28;;;18.30;99.90;;;;;;5030308;28;20025;-46
2021/07/27 03:33:28;;;;;;;5.45;4.70;;;18.30;99.90;;;;;;5030765;28;20025;-45
2021/07/27 03:35:54;;;;;;;5.18;4.63;;;18.30;99.90;;;;;;5030379;28;20080;-50
2021/07/27 03:38:19;;;;;;;5.50;4.72;;;18.30;99.90;;;;;;5030280;28;20440;-48
2021/07/27 03:40:45;;;;;;;4.68;4.15;;;18.40;99.90;;;;;;5029674;28;20035;-50
2021/07/27 03:43:10;;;;;;;5.68;4.88;;;18.40;99.90;;;;;;5030140;28;20495;-45
2021/07/27 03:45:36;;;;;;;7.47;4.18;;;18.40;99.90;;;;;;5030546;28;20492;-46
2021/07/27 03:48:01;;;;;;;9.65;4.93;;;18.40;99.90;;;;;;5030268;28;20032;-44
2021/07/27 03:50:27;;;;;;;4.95;4.35;;;18.30;99.90;;;;;;5029425;28;20069;-49
2021/07/27 03:52:53;;;;;;;4.97;4.47;;;18.30;99.90;;;;;;5030362;28;20032;-50
2021/07/27 03:55:19;;;;;;;5.28;4.55;;;18.40;99.90;;;;;;5029277;28;20033;-49
2021/07/27 03:57:44;;;;;;;7.53;4.90;;;18.30;99.90;;;;;;5038303;28;20022;-47
2021/07/27 04:00:10;;;;;;;4.95;4.45;;;18.30;99.90;;;;;;5030485;28;20068;-60
2021/07/27 04:02:36;;;;;;;14.75;5.07;;;18.20;99.90;;;;;;5029339;28;20112;-56
2021/07/27 04:05:04;;;;;;;5.97;4.43;;;18.20;99.90;;;;;;5028090;28;20112;-61
2021/07/27 04:07:30;;;;;;;7.07;4.93;;;18.20;99.90;;;;;;5028371;28;20064;-58
2021/07/27 04:09:59;;;;;;;6.60;5.00;;;18.20;99.90;;;;;;5028729;28;20026;-61
2021/07/27 04:12:25;;;;;;;6.07;5.05;;;18.20;99.90;;;;;;5026904;28;20667;-61
2021/07/27 04:14:51;;;;;;;7.53;5.35;;;18.20;99.90;;;;;;5029236;28;20042;-58
2021/07/27 04:17:18;;;;;;;5.55;4.95;;;18.10;99.90;;;;;;5037406;28;20021;-53
2021/07/27 04:19:43;;;;;;;5.78;5.10;;;18.00;99.90;;;;;;5028451;28;20025;-56
2021/07/27 04:22:09;;;;;;;9.70;5.47;;;18.00;99.90;;;;;;5028991;28;20025;-56
2021/07/27 04:24:34;;;;;;;8.13;6.72;;;18.00;99.90;;;;;;5029815;28;20036;-53
2021/07/27 04:27:00;;;;;;;6.65;5.95;;;18.00;99.90;;;;;;5028866;28;20025;-48
2021/07/27 04:29:25;;;;;;;8.55;6.03;;;18.10;99.90;;;;;;5014421;28;20127;-61
2021/07/27 04:31:51;;;;;;;10.65;5.68;;;18.10;99.90;;;;;;5033712;28;20071;-60
2021/07/27 04:34:17;;;;;;;7.40;6.07;;;18.10;99.90;;;;;;5034549;28;20041;-54
2021/07/27 04:36:43;;;;;;;9.40;6.25;;;18.10;99.90;;;;;;5032579;28;20670;-54
2021/07/27 04:39:08;;;;;;;12.35;5.80;;;18.10;99.90;;;;;;5013661;28;20041;-56
2021/07/27 04:41:35;;;;;;;5.97;5.38;;;18.10;99.90;;;;;;5032600;28;20030;-55
2021/07/27 04:44:00;;;;;;;9.05;6.55;;;18.20;99.90;;;;;;5032138;28;20494;-61
2021/07/27 04:46:26;;;;;;;8.35;5.60;;;18.20;99.90;;;;;;5032913;28;20064;-66
2021/07/27 04:48:54;;;;;;;9.52;6.18;;;18.30;99.90;;;;;;5031143;28;20395;-61
2021/07/27 04:51:20;;;;;;;7.18;6.20;;;18.40;99.90;;;;;;5032001;28;20545;-56
2021/07/27 04:53:48;;;;;;;6.80;6.07;;;18.40;99.90;;;;;;5041313;28;20034;-56
2021/07/27 04:56:13;;;;;;;10.30;6.70;;;18.50;99.90;;;;;;5032735;28;20021;-54
2021/07/27 04:58:39;;;;;;;9.90;5.97;;;18.60;99.90;;;;;;5030490;28;20403;-53
2021/07/27 05:01:04;;;;;;;7.70;6.93;;;18.70;99.90;;;;;;5032080;28;20025;-55
2021/07/27 05:03:30;;;;;;;10.35;6.35;;;18.80;99.90;;;;;;5032019;28;20033;-60
2021/07/27 05:05:56;;;;;;;8.90;6.07;;;18.90;99.90;;;;;;5032007;28;20144;-55
2021/07/27 05:08:22;;;;;;;8.77;6.22;;;18.90;99.90;;;;;;5029224;28;20441;-55
2021/07/27 05:10:47;;;;;;;8.10;6.03;;;19.00;99.90;;;;;;5031144;28;20510;-52
2021/07/27 05:13:13;;;;;;;7.90;6.43;;;19.10;99.90;;;;;;5028596;28;20029;-52
2021/07/27 05:15:38;;;;;;;7.28;6.35;;;19.10;99.90;;;;;;5032018;28;20025;-56
2021/07/27 05:18:04;;;;;;;7.35;6.20;;;19.20;99.90;;;;;;5032062;28;20399;-52
2021/07/27 05:20:30;;;;;;;10.60;6.38;;;19.20;99.90;;;;;;5030880;28;20026;-52
2021/07/27 05:22:56;;;;;;;6.43;5.82;;;19.30;99.90;;;;;;5031721;28;20036;-49
2021/07/27 05:25:21;;;;;;;9.63;5.72;;;19.30;99.90;;;;;;5032304;28;20378;-53
2021/07/27 05:27:47;;;;;;;10.80;5.90;;;19.40;99.90;;;;;;5048303;22;20048;-50
2021/07/27 05:30:14;;;;;;;12.30;6.32;;;19.50;99.90;;;;;;5017539;28;20414;-54
2021/07/27 05:32:40;;;;;;;10.50;5.53;;;19.70;99.90;;;;;;5049896;28;20226;-56
2021/07/27 05:35:07;;;;;;;11.82;5.63;;;19.80;99.90;;;;;;5036104;28;20139;-60
2021/07/27 05:37:33;;;;;;;10.75;5.88;;;20.00;99.90;;;;;;5043648;28;20029;-55
2021/07/27 05:39:58;;;;;;;7.55;5.32;;;20.00;99.90;;;;;;5031545;28;20793;-50
2021/07/27 05:42:24;;;;;;;6.88;6.03;;;20.10;99.90;;;;;;5032157;28;20096;-49
2021/07/27 05:44:49;;;;;;;7.72;5.20;;;20.00;99.90;;;;;;5027558;28;20022;-52
2021/07/27 05:47:15;;;;;;;5.88;5.28;;;19.90;99.90;;;;;;5035056;28;20045;-56
2021/07/27 05:49:41;;;;;;;10.77;5.68;;;20.00;99.90;;;;;;5034293;28;20021;-58
2021/07/27 05:52:07;;;;;;;7.95;5.95;;;20.00;99.90;;;;;;5035682;28;20049;-57
2021/07/27 05:54:33;;;;;;;6.68;5.97;;;19.90;99.90;;;;;;5035746;28;20056;-57
2021/07/27 05:56:58;;;;;;;8.85;6.85;;;20.00;99.90;;;;;;5035457;28;20485;-53
2021/07/27 05:59:24;;;;;;;12.43;5.68;;;19.90;99.90;;;;;;5035359;28;20025;-54
2021/07/27 06:01:50;;;;;;;12.23;6.82;;;20.00;99.90;;;;;;5034293;28;20109;-58
2021/07/27 06:04:16;;;;;;;8.50;5.88;;;20.10;99.90;;;;;;5035573;28;20052;-54
2021/07/27 06:06:42;;;;;;;10.35;6.55;;;20.10;99.90;;;;;;5035319;28;20025;-55
2021/07/27 06:09:11;;;;;;;9.10;6.40;;;20.20;99.90;;;;;;5034804;28;20029;-53
2021/07/27 06:11:37;;;;;;;8.02;6.20;;;20.30;99.90;;;;;;5035046;28;20072;-53
2021/07/27 06:14:04;;;;;;;8.18;5.90;;;20.30;99.90;;;;;;5035166;28;20021;-52
2021/07/27 06:16:39;;;;;;;7.63;6.00;;;20.40;99.90;;;;;;5035728;28;20017;-55
2021/07/27 06:19:06;;;;;;;8.18;5.45;;;20.40;99.90;;;;;;5036056;28;20053;-56
2021/07/27 06:21:33;;;;;;;5.90;5.30;;;20.50;99.90;;;;;;5035437;28;20056;-57
2021/07/27 06:23:59;;;;;;;5.93;5.32;;;20.50;99.90;;;;;;5035178;28;20100;-55
2021/07/27 06:26:24;;;;;;;5.60;4.97;;;20.60;99.90;;;;;;5034875;28;20033;-57
2021/07/27 06:28:50;;;;;;;6.57;5.75;;;20.70;99.90;;;;;;5033992;28;20454;-54
2021/07/27 06:31:16;;;;;;;6.20;4.75;;;20.80;99.90;;;;;;5034759;28;20084;-56
2021/07/27 06:33:42;;;;;;;5.80;5.28;;;20.90;99.90;;;;;;5034722;28;20344;-53
2021/07/27 06:36:09;;;;;;;7.25;5.30;;;20.90;99.90;;;;;;5034244;28;20108;-56
2021/07/27 06:38:35;;;;;;;6.32;5.72;;;20.90;99.90;;;;;;5034771;28;20075;-54
2021/07/27 06:41:04;;;;;;;7.82;5.68;;;20.90;99.90;;;;;;5034365;28;20121;-58
2021/07/27 06:43:29;;;;;;;7.00;5.15;;;20.90;99.90;;;;;;5034407;28;20030;-54
2021/07/27 06:45:55;;;;;;;9.05;5.53;;;20.80;99.90;;;;;;5034925;28;20036;-55
2021/07/27 06:48:22;;;;;;;7.43;5.72;;;20.70;99.90;;;;;;5034176;28;20026;-57
2021/07/27 06:50:47;;;;;;;8.02;6.18;;;20.60;99.90;;;;;;5033328;28;20030;-56
2021/07/27 06:53:13;;;;;;;7.50;5.90;;;20.70;99.90;;;;;;5033089;28;20096;-57
2021/07/27 06:55:38;;;;;;;5.70;5.10;;;20.70;99.90;;;;;;5035045;28;20029;-57
2021/07/27 06:58:04;;;;;;;9.32;5.93;;;20.70;99.90;;;;;;5033421;28;20511;-57
2021/07/27 07:00:29;;;;;;;6.57;5.60;;;20.70;99.90;;;;;;5034222;28;20041;-56
2021/07/27 07:02:55;;;;;;;7.32;5.78;;;20.80;99.90;;;;;;5034862;28;20073;-58
2021/07/27 07:05:20;;;;;;;7.07;6.13;;;21.00;99.90;;;;;;5034485;28;20029;-55
2021/07/27 07:07:46;;;;;;;6.10;5.18;;;21.00;99.90;;;;;;5034233;28;20025;-52
2021/07/27 07:10:12;;;;;;;8.30;5.15;;;21.10;99.90;;;;;;5033571;28;20056;-54
2021/07/27 07:12:37;;;;;;;7.43;6.60;;;21.10;99.90;;;;;;5023512;28;20076;-49
2021/07/27 07:15:04;;;;;;;8.52;5.95;;;21.10;99.90;;;;;;5029365;28;20053;-51
2021/07/27 07:17:30;;;;;;;8.55;5.75;;;21.20;99.90;;;;;;5028377;28;20501;-56
2021/07/27 07:19:55;;;;;;;10.30;5.25;;;21.20;99.90;;;;;;5017534;28;20037;-55
2021/07/27 07:22:21;;;;;;;7.70;6.25;;;21.30;99.90;;;;;;5030091;28;20026;-55
2021/07/27 07:24:47;;;;;;;6.40;5.50;;;21.40;99.90;;;;;;5029422;28;20029;-59
2021/07/27 07:27:13;;;;;;;8.70;6.13;;;21.40;99.90;;;;;;5027543;28;20029;-51
2021/07/27 07:29:39;;;;;;;7.13;5.80;;;21.40;99.90;;;;;;5029722;28;20076;-59
2021/07/27 07:32:04;;;;;;;9.82;5.97;;;21.40;99.90;;;;;;5035020;28;20053;-49
2021/07/27 07:34:31;;;;;;;7.15;5.13;;;21.50;99.90;;;;;;5029804;28;20056;-51
2021/07/27 07:36:57;;;;;;;6.95;5.95;;;21.50;99.90;;;;;;5030303;28;20032;-51
2021/07/27 07:39:22;;;;;;;6.45;5.82;;;21.50;99.90;;;;;;5029603;28;20029;-56
2021/07/27 07:41:48;;;;;;;12.05;5.82;;;21.40;99.90;;;;;;5026997;28;20046;-56
2021/07/27 07:44:13;;;;;;;7.10;6.40;;;21.40;99.90;;;;;;5019539;28;20057;-58
2021/07/27 07:46:39;;;;;;;9.75;6.68;;;21.40;99.90;;;;;;5041745;28;20108;-53
2021/07/27 07:49:06;;;;;;;5.88;5.18;;;21.40;99.90;;;;;;5039173;28;20034;-60
2021/07/27 07:51:44;;;;;;;6.50;5.88;;;21.30;99.90;;;;;;5030176;28;20049;-58
2021/07/27 07:54:09;;;;;;;8.38;6.15;;;21.30;99.90;;;;;;5010471;28;20022;-58
2021/07/27 07:56:35;;;;;;;9.00;5.65;;;21.40;99.90;;;;;;5010322;28;20037;-60
2021/07/27 07:59:00;;;;;;;12.57;6.28;;;21.40;99.90;;;;;;5028742;28;20026;-60
2021/07/27 08:01:26;;;;;;;10.55;6.78;;;21.40;99.90;;;;;;5027249;28;20083;-51
2021/07/27 08:03:51;;;;;;;9.80;5.97;;;21.60;99.90;;;;;;5040984;28;20013;-55
2021/07/27 08:06:17;;;;;;;6.88;5.72;;;21.80;99.90;;;;;;5052126;28;20049;-56
2021/07/27 08:08:42;;;;;;;7.90;5.65;;;22.30;99.90;;;;;;5025304;28;20037;-55
2021/07/27 08:11:12;;;;;;;5.88;5.28;;;22.90;99.20;;;;;;5021193;28;20037;-57
2021/07/27 08:13:38;;;;;;;8.00;5.85;;;23.50;98.10;;;;;;5041069;28;20116;-54
2021/07/27 08:16:13;;;;;;;7.90;5.97;;;23.70;97.60;;;;;;5035147;28;20074;-52
2021/07/27 08:18:39;;;;;;;9.85;5.38;;;24.20;97.20;;;;;;5032811;28;20347;-55
2021/07/27 08:21:04;;;;;;;7.88;6.55;;;24.70;96.20;;;;;;5034066;28;20036;-54
2021/07/27 08:23:30;;;;;;;6.72;6.03;;;25.30;94.90;;;;;;5033072;28;20033;-58
2021/07/27 08:25:56;;;;;;;6.90;5.68;;;25.50;94.30;;;;;;5032930;28;20394;-51
2021/07/27 08:28:22;;;;;;;8.57;5.93;;;25.50;94.30;;;;;;5032806;28;20033;-50
2021/07/27 08:30:47;;;;;;;6.38;5.78;;;25.70;94.30;;;;;;5045454;28;20108;-51
2021/07/27 08:33:13;;;;;;;6.80;6.15;;;26.00;94.10;;;;;;5035070;28;20029;-53
2021/07/27 08:35:38;;;;;;;7.07;5.65;;;26.30;92.80;;;;;;5035536;28;20033;-49
2021/07/27 08:38:04;;;;;;;5.47;4.97;;;26.40;93.10;;;;;;5033154;28;20022;-47
2021/07/27 08:40:34;;;;;;;8.90;5.28;;;26.70;93.00;;;;;;5023043;28;20570;-51
2021/07/27 08:43:02;;;;;;;5.38;4.88;;;27.00;92.80;;;;;;5026775;28;20040;-47
2021/07/27 08:45:27;;;;;;;10.38;5.55;;;27.00;92.40;;;;;;5033103;28;20060;-54
2021/07/27 08:47:53;;;;;;;6.70;5.90;;;26.50;92.50;;;;;;5032902;28;20033;-50
2021/07/27 08:50:19;;;;;;;6.70;5.15;;;26.00;93.10;;;;;;5032559;28;20029;-55
2021/07/27 08:52:45;;;;;;;6.03;5.50;;;25.60;93.70;;;;;;5032747;28;20032;-52
2021/07/27 08:55:11;;;;;;;6.70;6.00;;;25.10;93.90;;;;;;5043560;28;20021;-48
2021/07/27 08:57:58;;;;;;;5.78;5.25;;;24.80;94.40;;;;;;5044168;28;20079;-49
2021/07/27 09:00:25;;;;;;;7.38;6.35;;;24.70;94.80;;;;;;5030152;28;20079;-48
2021/07/27 09:02:51;;;;;;;17.58;7.10;;;24.70;94.80;;;;;;5019456;28;20353;-51
2021/07/27 09:05:17;;;;;;;9.52;5.57;;;24.70;94.70;;;;;;5013083;28;20239;-55
2021/07/27 09:07:42;;;;;;;11.30;6.30;;;24.80;95.00;;;;;;5013207;28;20026;-53
2021/07/27 09:10:16;;;;;;;5.68;5.03;;;25.00;94.30;;;;;;5014352;28;20026;-47
2021/07/27 09:12:51;;;;;;;8.13;5.40;;;25.40;94.20;;;;;;5033048;28;20510;-47
2021/07/27 09:15:20;;;;;;;7.13;5.30;;;25.80;93.90;;;;;;5031850;28;20305;-51
2021/07/27 09:17:53;;;;;;;7.15;4.90;;;26.30;93.30;;;;;;5032595;28;20025;-48
2021/07/27 09:20:31;;;;;;;5.80;5.20;;;26.70;92.90;;;;;;5032443;28;20033;-49
2021/07/27 09:22:57;;;;;;;8.98;5.38;;;27.10;91.70;;;;;;5032760;28;20031;-52
2021/07/27 09:25:26;;;;;;;5.97;5.07;;;27.30;91.50;;;;;;5032709;28;20033;-49
2021/07/27 09:28:02;;;;;;;18.95;11.23;;;27.20;91.70;;;;;;5032468;28;20506;-49
2021/07/27 09:30:29;;;;;;;37.20;26.10;;;27.20;91.70;;;;;;5032293;28;20044;-49
2021/07/27 09:32:55;;;;;;;10.35;6.50;;;27.10;91.30;;;;;;5032633;28;20029;-48
2021/07/27 09:35:22;;;;;;;5.80;4.93;;;27.20;91.50;;;;;;5032466;28;20537;-46
2021/07/27 09:38:03;;;;;;;9.50;5.68;;;27.50;92.00;;;;;;5032419;28;20160;-52
2021/07/27 09:40:29;;;;;;;5.03;4.53;;;27.90;90.70;;;;;;5032007;28;20057;-52
2021/07/27 09:42:55;;;;;;;6.07;5.05;;;27.90;91.00;;;;;;5032149;28;20088;-47
2021/07/27 09:45:21;;;;;;;6.93;5.15;;;27.30;90.70;;;;;;5031986;28;20431;-47
2021/07/27 09:47:48;;;;;;;7.90;6.00;;;26.80;91.20;;;;;;5029285;28;20108;-46
2021/07/27 09:50:17;;;;;;;6.10;5.50;;;26.30;91.70;;;;;;5027911;28;20033;-49
2021/07/27 09:52:44;;;;;;;6.25;5.65;;;26.00;92.60;;;;;;5030406;28;20090;-45
2021/07/27 09:55:13;;;;;;;8.63;5.15;;;25.60;93.20;;;;;;5031186;28;20101;-50
2021/07/27 09:57:39;;;;;;;8.40;5.80;;;25.40;93.30;;;;;;5031688;28;20096;-45
2021/07/27 10:00:05;;;;;;;6.70;6.03;;;25.10;93.30;;;;;;5031575;28;20060;-48
2021/07/27 10:02:34;;;;;;;12.15;6.90;;;24.90;93.90;;;;;;5031861;28;20033;-46
2021/07/27 10:04:59;;;;;;;8.15;5.80;;;25.00;94.40;;;;;;5031986;28;20045;-46
2021/07/27 10:07:29;;;;;;;7.78;5.82;;;25.00;94.40;;;;;;5031943;28;20025;-46
2021/07/27 10:10:05;;;;;;;5.95;5.32;;;25.00;94.20;;;;;;5031574;28;20105;-47
2021/07/27 10:12:35;;;;;;;7.55;5.82;;;25.00;93.80;;;;;;5031650;28;20021;-46
2021/07/27 10:15:15;;;;;;;7.93;6.03;;;24.90;93.80;;;;;;5032254;28;20438;-48
2021/07/27 10:17:49;;;;;;;10.38;6.30;;;24.90;94.00;;;;;;5031456;28;20017;-46
2021/07/27 10:20:25;;;;;;;7.93;5.93;;;24.90;94.10;;;;;;5031289;28;20193;-45
2021/07/27 10:22:50;;;;;;;6.45;5.85;;;24.80;94.40;;;;;;5032221;28;20028;-46
2021/07/27 10:25:17;;;;;;;9.30;6.53;;;24.60;94.10;;;;;;5031076;28;20399;-49
2021/07/27 10:27:53;;;;;;;7.03;6.32;;;24.60;94.80;;;;;;5031846;28;20029;-48
2021/07/27 10:30:32;;;;;;;8.77;6.25;;;24.50;94.20;;;;;;5030962;28;20033;-46
2021/07/27 10:32:58;;;;;;;6.82;5.63;;;24.50;94.50;;;;;;5031598;28;20025;-47
2021/07/27 10:35:30;;;;;;;7.63;5.68;;;24.30;94.30;;;;;;5031525;28;20021;-46
2021/07/27 10:38:13;;;;;;;9.75;6.15;;;24.20;94.90;;;;;;5031481;28;20026;-47
2021/07/27 10:40:40;;;;;;;7.18;5.93;;;24.10;95.00;;;;;;5030983;28;20037;-51
2021/07/27 10:43:07;;;;;;;8.05;6.32;;;24.10;95.10;;;;;;5031682;28;20104;-47
2021/07/27 10:45:33;;;;;;;15.95;6.47;;;23.90;95.20;;;;;;5031426;28;20028;-50
2021/07/27 10:47:59;;;;;;;6.13;5.50;;;23.90;95.60;;;;;;5031159;28;20072;-53
2021/07/27 10:50:33;;;;;;;6.18;5.57;;;24.00;95.20;;;;;;5030358;28;20064;-51
2021/07/27 10:53:07;;;;;;;6.60;5.82;;;24.00;95.00;;;;;;5031038;28;20062;-45
2021/07/27 10:55:35;;;;;;;8.77;6.38;;;24.00;95.00;;;;;;5030970;28;20017;-49
2021/07/27 10:58:04;;;;;;;8.43;6.45;;;24.00;94.90;;;;;;5030411;28;20395;-51
2021/07/27 11:00:31;;;;;;;9.88;6.72;;;24.00;95.70;;;;;;5030443;28;20363;-49
2021/07/27 11:02:57;;;;;;;7.65;6.38;;;24.10;96.10;;;;;;5030753;28;20087;-47
2021/07/27 11:05:26;;;;;;;9.95;6.45;;;24.10;96.50;;;;;;5030717;28;20494;-48
2021/07/27 11:07:52;;;;;;;7.18;6.25;;;24.10;95.80;;;;;;5030247;28;20021;-47
2021/07/27 11:10:21;;;;;;;7.80;6.15;;;24.20;95.40;;;;;;5030378;28;20036;-47
2021/07/27 11:12:47;;;;;;;8.15;6.55;;;24.30;95.90;;;;;;5030687;28;20040;-47
2021/07/27 11:15:14;;;;;;;11.90;8.25;;;24.40;96.10;;;;;;5030568;28;20025;-47
2021/07/27 11:17:46;;;;;;;7.82;6.13;;;24.30;96.00;;;;;;5029953;28;20021;-52
2021/07/27 11:20:14;;;;;;;6.90;5.82;;;24.40;96.60;;;;;;5028769;28;20079;-47
2021/07/27 11:22:49;;;;;;;7.85;5.68;;;24.30;95.70;;;;;;5030445;28;20041;-51
2021/07/27 11:25:18;;;;;;;;;;;24.20;96.10;;;;;;5030953;28;20057;-50
2021/07/27 11:27:44;;;;;;;6.20;5.60;;;24.20;95.40;;;;;;5030345;28;19912;-51
2021/07/27 11:30:12;;;;;;;7.60;5.75;;;24.20;95.50;;;;;;5028543;28;20105;-52
2021/07/27 11:32:47;;;;;;;7.35;5.50;;;24.20;94.60;;;;;;5030466;28;20029;-50
2021/07/27 11:35:17;;;;;;;18.48;13.55;;;24.20;95.20;;;;;;5030805;28;20376;-47
2021/07/27 11:37:44;;;;;;;11.82;8.63;;;24.30;95.70;;;;;;5029939;28;20026;-48
2021/07/27 11:40:24;;;;;;;11.48;9.77;;;24.20;96.00;;;;;;5030563;28;20026;-49
2021/07/27 11:43:06;;;;;;;6.80;5.95;;;24.10;96.40;;;;;;5029097;28;20025;-48
2021/07/27 11:45:38;;;;;;;10.73;7.20;;;24.10;96.60;;;;;;5030096;28;20518;-48
2021/07/27 11:48:05;;;;;;;11.63;6.00;;;24.30;96.50;;;;;;5030234;28;20033;-48
2021/07/27 11:50:38;;;;;;;7.90;6.03;;;24.40;95.60;;;;;;5028330;28;20444;-48
2021/07/27 11:53:05;;;;;;;7.13;6.43;;;24.30;95.80;;;;;;5030185;28;20138;-47
2021/07/27 11:55:33;;;;;;;7.65;6.82;;;24.40;95.50;;;;;;5030103;28;20022;-48
2021/07/27 11:57:59;;;;;;;6.80;6.05;;;24.50;95.40;;;;;;5030618;28;20053;-46
2021/07/27 12:00:25;;;;;;;6.97;5.80;;;24.50;95.40;;;;;;5030021;28;20026;-49
2021/07/27 12:02:51;;;;;;;8.02;6.63;;;24.60;96.10;;;;;;5031215;28;20033;-46
2021/07/27 12:05:16;;;;;;;7.03;6.15;;;24.70;95.60;;;;;;5030654;28;20040;-49
2021/07/27 12:07:42;;;;;;;8.63;6.90;;;24.80;95.70;;;;;;5030052;28;20038;-50
2021/07/27 12:10:08;;;;;;;12.63;6.35;;;24.70;94.40;;;;;;5029800;28;20057;-50
2021/07/27 12:12:34;;;;;;;10.23;6.45;;;24.60;95.90;;;;;;5029969;28;20021;-50
2021/07/27 12:15:00;;;;;;;7.22;5.82;;;24.60;95.70;;;;;;5029951;28;20036;-49
2021/07/27 12:17:26;;;;;;;9.98;6.20;;;24.60;95.20;;;;;;5027994;28;20021;-49
2021/07/27 12:19:52;;;;;;;8.68;6.50;;;24.60;95.10;;;;;;5029088;28;20021;-49
2021/07/27 12:22:17;;;;;;;9.82;5.80;;;24.60;95.10;;;;;;5029807;28;20495;-50
2021/07/27 12:24:43;;;;;;;10.43;6.28;;;24.70;95.10;;;;;;5029716;28;20017;-49
2021/07/27 12:27:09;;;;;;;6.55;5.93;;;24.70;94.50;;;;;;5029506;28;20390;-48
2021/07/27 12:29:36;;;;;;;9.32;5.57;;;24.70;94.70;;;;;;5029357;28;20556;-46
2021/07/27 12:32:02;;;;;;;8.40;6.28;;;24.70;94.50;;;;;;5029863;28;20025;-51
2021/07/27 12:34:27;;;;;;;7.13;5.60;;;24.70;94.20;;;;;;5030036;28;20379;-54
2021/07/27 12:36:54;;;;;;;6.28;5.68;;;24.70;93.20;;;;;;5029874;28;20017;-50
2021/07/27 12:39:23;;;;;;;16.77;6.18;;;24.70;93.80;;;;;;5029349;28;20030;-52
2021/07/27 12:41:49;;;;;;;6.35;5.55;;;24.80;94.40;;;;;;5030063;28;20029;-52
2021/07/27 12:44:16;;;;;;;14.90;6.10;;;24.80;94.80;;;;;;5029872;28;20022;-48
2021/07/27 12:46:42;;;;;;;7.80;5.93;;;24.80;94.70;;;;;;5029593;28;20046;-51
2021/07/27 12:49:09;;;;;;;8.35;6.43;;;25.00;94.10;;;;;;5031042;28;20112;-52
2021/07/27 12:51:35;;;;;;;8.23;6.10;;;25.00;93.80;;;;;;5033265;28;20049;-51
2021/07/27 12:54:00;;;;;;;7.88;5.50;;;25.20;93.60;;;;;;5033137;28;20075;-52
2021/07/27 12:56:26;;;;;;;5.88;5.18;;;25.20;92.90;;;;;;5033115;28;20151;-53
2021/07/27 12:58:51;;;;;;;7.65;6.10;;;25.30;92.60;;;;;;5032374;28;20025;-51
2021/07/27 13:01:17;;;;;;;8.80;6.07;;;25.30;92.70;;;;;;5032949;28;20026;-49
2021/07/27 13:03:42;;;;;;;6.63;5.82;;;25.40;92.20;;;;;;5032768;28;20037;-47